sensor_id;sensor_type;location;lat;lon;timestamp;P1;durP1;ratioP1;P2;durP2;ratioP2
2023;SDS011;1016;48.770;9.154;2023-09-12T00:00:16;33.43;;;9.17;;
2023;SDS011;1016;48.770;9.154;2023-09-12T00:02:41;35.10;;;8.20;;
2023;SDS011;1016;48.770;9.154;2023-09-12T00:05:07;36.50;;;9.33;;
2023;SDS011;1016;48.770;9.154;2023-09-12T00:07:33;35.13;;;8.67;;
2023;SDS011;1016;48.770;9.154;2023-09-12T00:10:00;36.73;;;9.50;;
2023;SDS011;1016;48.770;9.154;2023-09-12T00:12:25;35.73;;;9.60;;
2023;SDS011;1016;48.770;9.154;2023-09-12T00:14:51;36.00;;;10.20;;
2023;SDS011;1016;48.770;9.154;2023-09-12T00:17:17;36.47;;;9.83;;
2023;SDS011;1016;48.770;9.154;2023-09-12T00:19:42;35.10;;;9.37;;
2023;SDS011;1016;48.770;9.154;2023-09-12T00:22:08;36.00;;;9.50;;
2023;SDS011;1016;48.770;9.154;2023-09-12T00:24:34;33.50;;;9.73;;
2023;SDS011;1016;48.770;9.154;2023-09-12T00:26:59;35.13;;;9.03;;
2023;SDS011;1016;48.770;9.154;2023-09-12T00:29:25;37.70;;;9.57;;
2023;SDS011;1016;48.770;9.154;2023-09-12T00:31:51;35.60;;;9.70;;
2023;SDS011;1016;48.770;9.154;2023-09-12T00:34:17;35.37;;;9.83;;
2023;SDS011;1016;48.770;9.154;2023-09-12T00:36:42;35.90;;;8.97;;
2023;SDS011;1016;48.770;9.154;2023-09-12T00:39:08;36.50;;;10.13;;
2023;SDS011;1016;48.770;9.154;2023-09-12T00:41:34;34.40;;;9.80;;
2023;SDS011;1016;48.770;9.154;2023-09-12T00:44:00;35.50;;;9.77;;
2023;SDS011;1016;48.770;9.154;2023-09-12T00:46:25;38.17;;;9.60;;
2023;SDS011;1016;48.770;9.154;2023-09-12T00:48:52;34.80;;;9.83;;
2023;SDS011;1016;48.770;9.154;2023-09-12T00:51:20;37.13;;;9.23;;
2023;SDS011;1016;48.770;9.154;2023-09-12T00:53:47;34.90;;;9.30;;
2023;SDS011;1016;48.770;9.154;2023-09-12T00:56:13;37.27;;;9.67;;
2023;SDS011;1016;48.770;9.154;2023-09-12T00:58:39;34.83;;;9.67;;
2023;SDS011;1016;48.770;9.154;2023-09-12T01:01:05;36.17;;;9.47;;
2023;SDS011;1016;48.770;9.154;2023-09-12T01:03:31;36.63;;;9.97;;
2023;SDS011;1016;48.770;9.154;2023-09-12T01:05:57;36.10;;;10.00;;
2023;SDS011;1016;48.770;9.154;2023-09-12T01:08:24;33.97;;;9.23;;
2023;SDS011;1016;48.770;9.154;2023-09-12T01:10:50;33.10;;;8.83;;
2023;SDS011;1016;48.770;9.154;2023-09-12T01:13:18;35.77;;;9.67;;
2023;SDS011;1016;48.770;9.154;2023-09-12T01:15:45;33.00;;;8.60;;
2023;SDS011;1016;48.770;9.154;2023-09-12T01:18:11;35.90;;;10.20;;
2023;SDS011;1016;48.770;9.154;2023-09-12T01:20:37;35.63;;;9.73;;
2023;SDS011;1016;48.770;9.154;2023-09-12T01:25:42;33.00;;;9.43;;
2023;SDS011;1016;48.770;9.154;2023-09-12T01:28:27;34.37;;;9.13;;
2023;SDS011;1016;48.770;9.154;2023-09-12T01:31:00;37.53;;;9.67;;
2023;SDS011;1016;48.770;9.154;2023-09-12T01:33:28;36.03;;;9.30;;
2023;SDS011;1016;48.770;9.154;2023-09-12T01:35:54;36.10;;;10.20;;
2023;SDS011;1016;48.770;9.154;2023-09-12T01:38:21;34.60;;;9.43;;
2023;SDS011;1016;48.770;9.154;2023-09-12T01:40:49;34.50;;;9.23;;
2023;SDS011;1016;48.770;9.154;2023-09-12T01:43:16;32.90;;;9.50;;
2023;SDS011;1016;48.770;9.154;2023-09-12T01:45:50;37.07;;;9.40;;
2023;SDS011;1016;48.770;9.154;2023-09-12T01:48:19;35.70;;;9.20;;
2023;SDS011;1016;48.770;9.154;2023-09-12T01:50:47;36.60;;;9.00;;
2023;SDS011;1016;48.770;9.154;2023-09-12T01:53:13;37.43;;;9.73;;
2023;SDS011;1016;48.770;9.154;2023-09-12T01:55:41;33.07;;;9.07;;
2023;SDS011;1016;48.770;9.154;2023-09-12T01:58:08;35.27;;;9.70;;
2023;SDS011;1016;48.770;9.154;2023-09-12T02:00:34;35.43;;;9.20;;
2023;SDS011;1016;48.770;9.154;2023-09-12T02:03:01;37.00;;;9.33;;
2023;SDS011;1016;48.770;9.154;2023-09-12T02:05:28;35.03;;;8.90;;
2023;SDS011;1016;48.770;9.154;2023-09-12T02:07:57;35.50;;;8.90;;
2023;SDS011;1016;48.770;9.154;2023-09-12T02:10:25;33.47;;;9.40;;
2023;SDS011;1016;48.770;9.154;2023-09-12T02:12:50;34.80;;;8.33;;
2023;SDS011;1016;48.770;9.154;2023-09-12T02:15:16;32.57;;;8.23;;
2023;SDS011;1016;48.770;9.154;2023-09-12T02:17:42;33.07;;;9.13;;
2023;SDS011;1016;48.770;9.154;2023-09-12T02:20:08;34.90;;;8.90;;
2023;SDS011;1016;48.770;9.154;2023-09-12T02:22:34;34.27;;;8.30;;
2023;SDS011;1016;48.770;9.154;2023-09-12T02:25:01;35.00;;;7.97;;
2023;SDS011;1016;48.770;9.154;2023-09-12T02:27:28;35.10;;;8.90;;
2023;SDS011;1016;48.770;9.154;2023-09-12T02:29:53;34.37;;;9.27;;
2023;SDS011;1016;48.770;9.154;2023-09-12T02:32:20;37.67;;;9.20;;
2023;SDS011;1016;48.770;9.154;2023-09-12T02:34:45;36.47;;;9.00;;
2023;SDS011;1016;48.770;9.154;2023-09-12T02:37:12;33.20;;;8.03;;
2023;SDS011;1016;48.770;9.154;2023-09-12T02:39:37;35.97;;;8.50;;
2023;SDS011;1016;48.770;9.154;2023-09-12T02:42:03;35.87;;;7.60;;
2023;SDS011;1016;48.770;9.154;2023-09-12T02:44:29;36.30;;;8.17;;
2023;SDS011;1016;48.770;9.154;2023-09-12T02:46:54;33.97;;;9.30;;
2023;SDS011;1016;48.770;9.154;2023-09-12T02:49:20;35.50;;;9.27;;
2023;SDS011;1016;48.770;9.154;2023-09-12T02:51:45;38.90;;;9.40;;
2023;SDS011;1016;48.770;9.154;2023-09-12T02:54:11;37.30;;;8.93;;
2023;SDS011;1016;48.770;9.154;2023-09-12T02:56:37;35.73;;;9.20;;
2023;SDS011;1016;48.770;9.154;2023-09-12T02:59:02;32.27;;;8.37;;
2023;SDS011;1016;48.770;9.154;2023-09-12T03:01:29;36.07;;;8.77;;
2023;SDS011;1016;48.770;9.154;2023-09-12T03:03:55;34.63;;;9.17;;
2023;SDS011;1016;48.770;9.154;2023-09-12T03:06:22;36.80;;;9.93;;
2023;SDS011;1016;48.770;9.154;2023-09-12T03:08:49;39.07;;;9.03;;
2023;SDS011;1016;48.770;9.154;2023-09-12T03:11:15;35.33;;;8.70;;
2023;SDS011;1016;48.770;9.154;2023-09-12T03:13:41;34.17;;;8.67;;
2023;SDS011;1016;48.770;9.154;2023-09-12T03:16:10;39.80;;;9.63;;
2023;SDS011;1016;48.770;9.154;2023-09-12T03:18:36;36.53;;;9.40;;
2023;SDS011;1016;48.770;9.154;2023-09-12T03:21:01;38.23;;;9.27;;
2023;SDS011;1016;48.770;9.154;2023-09-12T03:23:27;35.43;;;9.50;;
2023;SDS011;1016;48.770;9.154;2023-09-12T03:25:53;36.07;;;9.70;;
2023;SDS011;1016;48.770;9.154;2023-09-12T03:28:18;37.00;;;9.10;;
2023;SDS011;1016;48.770;9.154;2023-09-12T03:30:44;37.73;;;9.07;;
2023;SDS011;1016;48.770;9.154;2023-09-12T03:33:10;39.93;;;9.80;;
2023;SDS011;1016;48.770;9.154;2023-09-12T03:35:36;34.90;;;9.13;;
2023;SDS011;1016;48.770;9.154;2023-09-12T03:38:01;34.80;;;9.40;;
2023;SDS011;1016;48.770;9.154;2023-09-12T03:40:28;35.30;;;9.33;;
2023;SDS011;1016;48.770;9.154;2023-09-12T03:42:55;35.40;;;9.03;;
2023;SDS011;1016;48.770;9.154;2023-09-12T03:45:21;36.40;;;10.03;;
2023;SDS011;1016;48.770;9.154;2023-09-12T03:47:46;35.60;;;9.13;;
2023;SDS011;1016;48.770;9.154;2023-09-12T03:50:12;34.80;;;8.93;;
2023;SDS011;1016;48.770;9.154;2023-09-12T03:52:38;35.43;;;8.73;;
2023;SDS011;1016;48.770;9.154;2023-09-12T03:55:04;35.80;;;8.50;;
2023;SDS011;1016;48.770;9.154;2023-09-12T03:57:31;34.73;;;9.67;;
2023;SDS011;1016;48.770;9.154;2023-09-12T03:59:57;34.80;;;9.17;;
2023;SDS011;1016;48.770;9.154;2023-09-12T04:02:23;35.40;;;8.77;;
2023;SDS011;1016;48.770;9.154;2023-09-12T04:04:48;34.00;;;8.40;;
2023;SDS011;1016;48.770;9.154;2023-09-12T04:07:14;34.87;;;8.27;;
2023;SDS011;1016;48.770;9.154;2023-09-12T04:09:39;36.13;;;8.30;;
2023;SDS011;1016;48.770;9.154;2023-09-12T04:12:05;36.83;;;8.63;;
2023;SDS011;1016;48.770;9.154;2023-09-12T04:14:32;34.63;;;8.67;;
2023;SDS011;1016;48.770;9.154;2023-09-12T04:16:57;34.20;;;8.77;;
2023;SDS011;1016;48.770;9.154;2023-09-12T04:19:24;34.60;;;9.03;;
2023;SDS011;1016;48.770;9.154;2023-09-12T04:21:51;33.83;;;9.00;;
2023;SDS011;1016;48.770;9.154;2023-09-12T04:24:17;37.27;;;8.70;;
2023;SDS011;1016;48.770;9.154;2023-09-12T04:26:43;36.33;;;8.87;;
2023;SDS011;1016;48.770;9.154;2023-09-12T04:29:09;35.20;;;8.33;;
2023;SDS011;1016;48.770;9.154;2023-09-12T04:31:35;40.30;;;9.03;;
2023;SDS011;1016;48.770;9.154;2023-09-12T04:34:01;36.23;;;9.30;;
2023;SDS011;1016;48.770;9.154;2023-09-12T04:36:26;33.77;;;8.70;;
2023;SDS011;1016;48.770;9.154;2023-09-12T04:38:52;37.97;;;9.13;;
2023;SDS011;1016;48.770;9.154;2023-09-12T04:41:17;33.50;;;8.80;;
2023;SDS011;1016;48.770;9.154;2023-09-12T04:43:43;33.93;;;9.07;;
2023;SDS011;1016;48.770;9.154;2023-09-12T04:46:10;34.90;;;9.10;;
2023;SDS011;1016;48.770;9.154;2023-09-12T04:48:36;35.83;;;9.47;;
2023;SDS011;1016;48.770;9.154;2023-09-12T04:51:01;35.33;;;10.00;;
2023;SDS011;1016;48.770;9.154;2023-09-12T04:53:27;37.00;;;10.07;;
2023;SDS011;1016;48.770;9.154;2023-09-12T04:55:59;35.80;;;8.77;;
2023;SDS011;1016;48.770;9.154;2023-09-12T04:58:28;34.93;;;9.20;;
2023;SDS011;1016;48.770;9.154;2023-09-12T05:00:54;35.00;;;8.80;;
2023;SDS011;1016;48.770;9.154;2023-09-12T05:03:20;35.90;;;9.83;;
2023;SDS011;1016;48.770;9.154;2023-09-12T05:05:47;35.47;;;9.37;;
2023;SDS011;1016;48.770;9.154;2023-09-12T05:08:17;37.60;;;9.90;;
2023;SDS011;1016;48.770;9.154;2023-09-12T05:10:46;33.50;;;9.50;;
2023;SDS011;1016;48.770;9.154;2023-09-12T05:13:12;35.10;;;9.33;;
2023;SDS011;1016;48.770;9.154;2023-09-12T05:15:37;33.30;;;9.90;;
2023;SDS011;1016;48.770;9.154;2023-09-12T05:18:04;36.17;;;9.87;;
2023;SDS011;1016;48.770;9.154;2023-09-12T05:20:34;34.50;;;9.40;;
2023;SDS011;1016;48.770;9.154;2023-09-12T05:22:59;35.93;;;9.60;;
2023;SDS011;1016;48.770;9.154;2023-09-12T05:25:25;36.13;;;9.60;;
2023;SDS011;1016;48.770;9.154;2023-09-12T05:27:52;34.77;;;9.60;;
2023;SDS011;1016;48.770;9.154;2023-09-12T05:30:18;36.23;;;9.57;;
2023;SDS011;1016;48.770;9.154;2023-09-12T05:32:44;35.53;;;9.53;;
2023;SDS011;1016;48.770;9.154;2023-09-12T05:35:09;34.83;;;9.40;;
2023;SDS011;1016;48.770;9.154;2023-09-12T05:37:35;35.33;;;9.73;;
2023;SDS011;1016;48.770;9.154;2023-09-12T05:40:00;36.67;;;9.53;;
2023;SDS011;1016;48.770;9.154;2023-09-12T05:42:26;36.73;;;9.67;;
2023;SDS011;1016;48.770;9.154;2023-09-12T05:44:52;34.47;;;9.43;;
2023;SDS011;1016;48.770;9.154;2023-09-12T05:47:21;35.83;;;9.70;;
2023;SDS011;1016;48.770;9.154;2023-09-12T05:49:47;35.40;;;9.77;;
2023;SDS011;1016;48.770;9.154;2023-09-12T05:52:12;38.50;;;9.80;;
2023;SDS011;1016;48.770;9.154;2023-09-12T05:54:39;37.13;;;10.20;;
2023;SDS011;1016;48.770;9.154;2023-09-12T05:57:06;34.70;;;10.30;;
2023;SDS011;1016;48.770;9.154;2023-09-12T05:59:32;33.73;;;9.23;;
2023;SDS011;1016;48.770;9.154;2023-09-12T06:01:58;34.60;;;8.80;;
2023;SDS011;1016;48.770;9.154;2023-09-12T06:04:23;35.10;;;9.73;;
2023;SDS011;1016;48.770;9.154;2023-09-12T06:06:49;36.20;;;9.53;;
2023;SDS011;1016;48.770;9.154;2023-09-12T06:09:14;35.57;;;10.60;;
2023;SDS011;1016;48.770;9.154;2023-09-12T06:11:40;37.60;;;10.23;;
2023;SDS011;1016;48.770;9.154;2023-09-12T06:14:05;35.20;;;9.60;;
2023;SDS011;1016;48.770;9.154;2023-09-12T06:16:31;38.20;;;9.93;;
2023;SDS011;1016;48.770;9.154;2023-09-12T06:18:56;34.90;;;9.10;;
2023;SDS011;1016;48.770;9.154;2023-09-12T06:21:22;34.17;;;9.67;;
2023;SDS011;1016;48.770;9.154;2023-09-12T06:23:48;33.80;;;9.07;;
2023;SDS011;1016;48.770;9.154;2023-09-12T06:26:32;34.50;;;9.10;;
2023;SDS011;1016;48.770;9.154;2023-09-12T06:28:57;35.60;;;9.20;;
2023;SDS011;1016;48.770;9.154;2023-09-12T06:31:23;32.97;;;8.70;;
2023;SDS011;1016;48.770;9.154;2023-09-12T06:33:49;34.83;;;9.87;;
2023;SDS011;1016;48.770;9.154;2023-09-12T06:36:16;34.03;;;9.20;;
2023;SDS011;1016;48.770;9.154;2023-09-12T06:38:45;31.87;;;9.20;;
2023;SDS011;1016;48.770;9.154;2023-09-12T06:41:10;34.43;;;8.93;;
2023;SDS011;1016;48.770;9.154;2023-09-12T06:43:39;33.70;;;9.53;;
2023;SDS011;1016;48.770;9.154;2023-09-12T06:46:06;32.50;;;8.53;;
2023;SDS011;1016;48.770;9.154;2023-09-12T06:48:35;37.33;;;9.20;;
2023;SDS011;1016;48.770;9.154;2023-09-12T06:51:09;35.70;;;10.27;;
2023;SDS011;1016;48.770;9.154;2023-09-12T06:53:35;37.03;;;10.17;;
2023;SDS011;1016;48.770;9.154;2023-09-12T06:56:04;33.77;;;9.40;;
2023;SDS011;1016;48.770;9.154;2023-09-12T06:58:30;37.70;;;10.23;;
2023;SDS011;1016;48.770;9.154;2023-09-12T07:00:56;35.50;;;10.17;;
2023;SDS011;1016;48.770;9.154;2023-09-12T07:03:30;36.60;;;10.47;;
2023;SDS011;1016;48.770;9.154;2023-09-12T07:06:00;38.43;;;10.30;;
2023;SDS011;1016;48.770;9.154;2023-09-12T07:08:28;36.07;;;10.40;;
2023;SDS011;1016;48.770;9.154;2023-09-12T07:10:55;38.00;;;10.40;;
2023;SDS011;1016;48.770;9.154;2023-09-12T07:13:22;36.53;;;10.17;;
2023;SDS011;1016;48.770;9.154;2023-09-12T07:15:52;40.17;;;10.20;;
2023;SDS011;1016;48.770;9.154;2023-09-12T07:18:23;36.10;;;10.17;;
2023;SDS011;1016;48.770;9.154;2023-09-12T07:20:56;36.30;;;11.60;;
2023;SDS011;1016;48.770;9.154;2023-09-12T07:23:26;40.00;;;12.27;;
2023;SDS011;1016;48.770;9.154;2023-09-12T07:25:52;36.63;;;10.60;;
2023;SDS011;1016;48.770;9.154;2023-09-12T07:28:20;37.60;;;10.07;;
2023;SDS011;1016;48.770;9.154;2023-09-12T07:30:46;35.77;;;10.07;;
2023;SDS011;1016;48.770;9.154;2023-09-12T07:33:12;36.20;;;10.70;;
2023;SDS011;1016;48.770;9.154;2023-09-12T07:35:38;35.57;;;10.37;;
2023;SDS011;1016;48.770;9.154;2023-09-12T07:38:08;34.80;;;10.37;;
2023;SDS011;1016;48.770;9.154;2023-09-12T07:40:34;38.57;;;11.10;;
2023;SDS011;1016;48.770;9.154;2023-09-12T07:43:00;36.60;;;10.90;;
2023;SDS011;1016;48.770;9.154;2023-09-12T07:45:25;35.13;;;9.90;;
2023;SDS011;1016;48.770;9.154;2023-09-12T07:47:51;37.00;;;11.10;;
2023;SDS011;1016;48.770;9.154;2023-09-12T07:50:16;36.60;;;9.93;;
2023;SDS011;1016;48.770;9.154;2023-09-12T07:52:42;37.10;;;10.80;;
2023;SDS011;1016;48.770;9.154;2023-09-12T07:55:08;37.80;;;10.93;;
2023;SDS011;1016;48.770;9.154;2023-09-12T07:57:34;35.93;;;10.37;;
2023;SDS011;1016;48.770;9.154;2023-09-12T08:00:01;37.10;;;10.57;;
2023;SDS011;1016;48.770;9.154;2023-09-12T08:02:32;34.40;;;10.43;;
2023;SDS011;1016;48.770;9.154;2023-09-12T08:04:58;34.73;;;10.33;;
2023;SDS011;1016;48.770;9.154;2023-09-12T08:07:23;35.00;;;10.73;;
2023;SDS011;1016;48.770;9.154;2023-09-12T08:09:53;43.27;;;10.40;;
2023;SDS011;1016;48.770;9.154;2023-09-12T08:12:28;34.40;;;10.73;;
2023;SDS011;1016;48.770;9.154;2023-09-12T08:15:21;33.57;;;10.50;;
2023;SDS011;1016;48.770;9.154;2023-09-12T08:17:55;34.60;;;9.60;;
2023;SDS011;1016;48.770;9.154;2023-09-12T08:20:21;35.80;;;10.60;;
2023;SDS011;1016;48.770;9.154;2023-09-12T08:22:50;35.10;;;10.37;;
2023;SDS011;1016;48.770;9.154;2023-09-12T08:25:16;33.10;;;9.63;;
2023;SDS011;1016;48.770;9.154;2023-09-12T08:27:41;35.93;;;9.23;;
2023;SDS011;1016;48.770;9.154;2023-09-12T08:30:08;34.50;;;9.73;;
2023;SDS011;1016;48.770;9.154;2023-09-12T08:32:35;33.07;;;9.90;;
2023;SDS011;1016;48.770;9.154;2023-09-12T08:35:00;35.47;;;9.63;;
2023;SDS011;1016;48.770;9.154;2023-09-12T08:37:27;33.97;;;10.07;;
2023;SDS011;1016;48.770;9.154;2023-09-12T08:39:53;34.10;;;10.07;;
2023;SDS011;1016;48.770;9.154;2023-09-12T08:42:21;33.33;;;9.93;;
2023;SDS011;1016;48.770;9.154;2023-09-12T08:44:48;34.07;;;9.90;;
2023;SDS011;1016;48.770;9.154;2023-09-12T08:47:20;33.60;;;10.13;;
2023;SDS011;1016;48.770;9.154;2023-09-12T08:49:50;37.07;;;10.70;;
2023;SDS011;1016;48.770;9.154;2023-09-12T08:52:15;33.37;;;10.53;;
2023;SDS011;1016;48.770;9.154;2023-09-12T08:54:44;34.73;;;10.20;;
2023;SDS011;1016;48.770;9.154;2023-09-12T08:57:13;37.00;;;10.30;;
2023;SDS011;1016;48.770;9.154;2023-09-12T08:59:39;34.60;;;10.80;;
2023;SDS011;1016;48.770;9.154;2023-09-12T09:02:07;35.80;;;10.60;;
2023;SDS011;1016;48.770;9.154;2023-09-12T09:04:34;38.53;;;11.57;;
2023;SDS011;1016;48.770;9.154;2023-09-12T09:07:02;34.93;;;10.80;;
2023;SDS011;1016;48.770;9.154;2023-09-12T09:09:29;33.27;;;9.87;;
2023;SDS011;1016;48.770;9.154;2023-09-12T09:11:55;34.87;;;10.80;;
2023;SDS011;1016;48.770;9.154;2023-09-12T09:14:24;37.03;;;10.50;;
2023;SDS011;1016;48.770;9.154;2023-09-12T09:16:49;33.37;;;10.40;;
2023;SDS011;1016;48.770;9.154;2023-09-12T09:19:15;36.30;;;10.53;;
2023;SDS011;1016;48.770;9.154;2023-09-12T09:21:43;33.00;;;10.07;;
2023;SDS011;1016;48.770;9.154;2023-09-12T09:24:10;34.53;;;9.90;;
2023;SDS011;1016;48.770;9.154;2023-09-12T09:26:41;33.00;;;9.80;;
2023;SDS011;1016;48.770;9.154;2023-09-12T09:29:08;34.90;;;9.07;;
2023;SDS011;1016;48.770;9.154;2023-09-12T09:31:35;32.90;;;9.40;;
2023;SDS011;1016;48.770;9.154;2023-09-12T09:34:25;35.43;;;10.23;;
2023;SDS011;1016;48.770;9.154;2023-09-12T09:36:53;34.00;;;10.13;;
2023;SDS011;1016;48.770;9.154;2023-09-12T09:39:25;35.70;;;9.77;;
2023;SDS011;1016;48.770;9.154;2023-09-12T09:41:54;37.10;;;10.87;;
2023;SDS011;1016;48.770;9.154;2023-09-12T09:44:21;35.33;;;11.20;;
2023;SDS011;1016;48.770;9.154;2023-09-12T09:46:55;33.43;;;9.13;;
2023;SDS011;1016;48.770;9.154;2023-09-12T09:49:25;39.33;;;10.13;;
2023;SDS011;1016;48.770;9.154;2023-09-12T09:51:51;34.57;;;10.03;;
2023;SDS011;1016;48.770;9.154;2023-09-12T09:54:35;35.93;;;10.53;;
2023;SDS011;1016;48.770;9.154;2023-09-12T09:57:08;34.60;;;10.17;;
2023;SDS011;1016;48.770;9.154;2023-09-12T09:59:49;33.30;;;10.10;;
2023;SDS011;1016;48.770;9.154;2023-09-12T10:02:18;34.10;;;10.33;;
2023;SDS011;1016;48.770;9.154;2023-09-12T10:04:52;39.70;;;10.97;;
2023;SDS011;1016;48.770;9.154;2023-09-12T10:07:20;34.30;;;10.10;;
2023;SDS011;1016;48.770;9.154;2023-09-12T10:09:47;34.10;;;10.47;;
2023;SDS011;1016;48.770;9.154;2023-09-12T10:12:12;35.63;;;11.10;;
2023;SDS011;1016;48.770;9.154;2023-09-12T10:14:38;36.80;;;10.90;;
2023;SDS011;1016;48.770;9.154;2023-09-12T10:17:05;37.87;;;11.13;;
2023;SDS011;1016;48.770;9.154;2023-09-12T10:19:54;36.20;;;10.93;;
2023;SDS011;1016;48.770;9.154;2023-09-12T10:22:21;34.00;;;9.80;;
2023;SDS011;1016;48.770;9.154;2023-09-12T10:24:52;36.37;;;10.70;;
2023;SDS011;1016;48.770;9.154;2023-09-12T10:27:18;37.30;;;10.73;;
2023;SDS011;1016;48.770;9.154;2023-09-12T10:29:45;36.00;;;11.40;;
2023;SDS011;1016;48.770;9.154;2023-09-12T10:32:14;37.80;;;10.57;;
2023;SDS011;1016;48.770;9.154;2023-09-12T10:34:41;34.47;;;10.60;;
2023;SDS011;1016;48.770;9.154;2023-09-12T10:37:10;37.70;;;11.10;;
2023;SDS011;1016;48.770;9.154;2023-09-12T10:39:40;36.63;;;10.83;;
2023;SDS011;1016;48.770;9.154;2023-09-12T10:42:08;35.00;;;11.00;;
2023;SDS011;1016;48.770;9.154;2023-09-12T10:44:35;35.60;;;10.53;;
2023;SDS011;1016;48.770;9.154;2023-09-12T10:47:04;34.70;;;11.20;;
2023;SDS011;1016;48.770;9.154;2023-09-12T10:49:30;36.60;;;10.33;;
2023;SDS011;1016;48.770;9.154;2023-09-12T10:51:56;38.43;;;11.40;;
2023;SDS011;1016;48.770;9.154;2023-09-12T10:54:26;36.50;;;11.60;;
2023;SDS011;1016;48.770;9.154;2023-09-12T10:57:05;37.80;;;11.50;;
2023;SDS011;1016;48.770;9.154;2023-09-12T10:59:34;35.70;;;11.80;;
2023;SDS011;1016;48.770;9.154;2023-09-12T11:04:54;39.77;;;12.10;;
2023;SDS011;1016;48.770;9.154;2023-09-12T11:07:30;40.90;;;11.33;;
2023;SDS011;1016;48.770;9.154;2023-09-12T11:12:43;36.77;;;10.67;;
2023;SDS011;1016;48.770;9.154;2023-09-12T11:23:22;35.13;;;9.90;;
2023;SDS011;1016;48.770;9.154;2023-09-12T11:25:48;35.63;;;11.27;;
2023;SDS011;1016;48.770;9.154;2023-09-12T11:28:32;36.30;;;10.83;;
2023;SDS011;1016;48.770;9.154;2023-09-12T11:31:04;36.80;;;10.47;;
2023;SDS011;1016;48.770;9.154;2023-09-12T11:33:31;36.30;;;10.27;;
2023;SDS011;1016;48.770;9.154;2023-09-12T11:35:57;37.30;;;10.43;;
2023;SDS011;1016;48.770;9.154;2023-09-12T11:38:26;39.27;;;10.67;;
2023;SDS011;1016;48.770;9.154;2023-09-12T11:40:54;36.17;;;10.40;;
2023;SDS011;1016;48.770;9.154;2023-09-12T11:43:26;34.40;;;9.80;;
2023;SDS011;1016;48.770;9.154;2023-09-12T11:45:57;38.50;;;10.10;;
2023;SDS011;1016;48.770;9.154;2023-09-12T11:48:33;35.47;;;10.30;;
2023;SDS011;1016;48.770;9.154;2023-09-12T11:50:59;37.73;;;10.33;;
2023;SDS011;1016;48.770;9.154;2023-09-12T11:53:27;36.03;;;9.83;;
2023;SDS011;1016;48.770;9.154;2023-09-12T11:56:05;35.40;;;9.93;;
2023;SDS011;1016;48.770;9.154;2023-09-12T11:58:31;34.77;;;9.90;;
2023;SDS011;1016;48.770;9.154;2023-09-12T12:01:07;34.80;;;10.30;;
2023;SDS011;1016;48.770;9.154;2023-09-12T12:03:37;36.47;;;10.33;;
2023;SDS011;1016;48.770;9.154;2023-09-12T12:06:03;35.77;;;10.60;;
2023;SDS011;1016;48.770;9.154;2023-09-12T12:08:32;33.80;;;10.10;;
2023;SDS011;1016;48.770;9.154;2023-09-12T12:11:06;35.80;;;10.90;;
2023;SDS011;1016;48.770;9.154;2023-09-12T12:13:32;38.40;;;10.70;;
2023;SDS011;1016;48.770;9.154;2023-09-12T12:15:58;35.10;;;10.40;;
2023;SDS011;1016;48.770;9.154;2023-09-12T12:18:23;35.53;;;10.20;;
2023;SDS011;1016;48.770;9.154;2023-09-12T12:20:52;34.63;;;9.83;;
2023;SDS011;1016;48.770;9.154;2023-09-12T12:23:21;35.37;;;10.43;;
2023;SDS011;1016;48.770;9.154;2023-09-12T12:25:46;33.20;;;9.80;;
2023;SDS011;1016;48.770;9.154;2023-09-12T12:28:12;36.13;;;9.80;;
2023;SDS011;1016;48.770;9.154;2023-09-12T12:30:37;34.30;;;9.73;;
2023;SDS011;1016;48.770;9.154;2023-09-12T12:33:08;35.40;;;10.03;;
2023;SDS011;1016;48.770;9.154;2023-09-12T12:35:34;32.30;;;9.10;;
2023;SDS011;1016;48.770;9.154;2023-09-12T12:38:01;33.10;;;9.17;;
2023;SDS011;1016;48.770;9.154;2023-09-12T12:40:27;34.57;;;9.80;;
2023;SDS011;1016;48.770;9.154;2023-09-12T12:42:53;35.97;;;10.33;;
2023;SDS011;1016;48.770;9.154;2023-09-12T12:45:23;33.50;;;9.80;;
2023;SDS011;1016;48.770;9.154;2023-09-12T12:47:54;38.03;;;8.50;;
2023;SDS011;1016;48.770;9.154;2023-09-12T12:50:28;34.00;;;9.40;;
2023;SDS011;1016;48.770;9.154;2023-09-12T12:53:01;38.10;;;9.70;;
2023;SDS011;1016;48.770;9.154;2023-09-12T12:55:26;34.47;;;8.10;;
2023;SDS011;1016;48.770;9.154;2023-09-12T12:57:53;32.97;;;9.00;;
2023;SDS011;1016;48.770;9.154;2023-09-12T13:00:22;35.47;;;8.87;;
2023;SDS011;1016;48.770;9.154;2023-09-12T13:02:52;38.07;;;9.20;;
2023;SDS011;1016;48.770;9.154;2023-09-12T13:05:24;36.60;;;9.10;;
2023;SDS011;1016;48.770;9.154;2023-09-12T13:07:51;32.43;;;8.50;;
2023;SDS011;1016;48.770;9.154;2023-09-12T13:10:29;32.40;;;8.27;;
2023;SDS011;1016;48.770;9.154;2023-09-12T13:12:55;32.20;;;8.60;;
2023;SDS011;1016;48.770;9.154;2023-09-12T13:15:21;35.23;;;8.60;;
2023;SDS011;1016;48.770;9.154;2023-09-12T13:17:47;32.80;;;8.60;;
2023;SDS011;1016;48.770;9.154;2023-09-12T13:20:18;31.70;;;8.20;;
2023;SDS011;1016;48.770;9.154;2023-09-12T13:22:46;33.70;;;8.43;;
2023;SDS011;1016;48.770;9.154;2023-09-12T13:25:29;31.60;;;8.10;;
2023;SDS011;1016;48.770;9.154;2023-09-12T13:27:56;32.17;;;7.70;;
2023;SDS011;1016;48.770;9.154;2023-09-12T13:30:24;33.87;;;8.40;;
2023;SDS011;1016;48.770;9.154;2023-09-12T13:32:52;35.60;;;7.83;;
2023;SDS011;1016;48.770;9.154;2023-09-12T13:35:17;32.30;;;7.13;;
2023;SDS011;1016;48.770;9.154;2023-09-12T13:37:49;31.47;;;8.03;;
2023;SDS011;1016;48.770;9.154;2023-09-12T13:40:15;31.27;;;8.17;;
2023;SDS011;1016;48.770;9.154;2023-09-12T13:42:41;33.70;;;8.47;;
2023;SDS011;1016;48.770;9.154;2023-09-12T13:45:09;32.20;;;8.47;;
2023;SDS011;1016;48.770;9.154;2023-09-12T13:47:35;35.90;;;8.90;;
2023;SDS011;1016;48.770;9.154;2023-09-12T13:50:05;34.53;;;8.30;;
2023;SDS011;1016;48.770;9.154;2023-09-12T13:52:44;33.30;;;8.20;;
2023;SDS011;1016;48.770;9.154;2023-09-12T13:55:21;33.17;;;8.57;;
2023;SDS011;1016;48.770;9.154;2023-09-12T13:57:53;35.70;;;8.47;;
2023;SDS011;1016;48.770;9.154;2023-09-12T14:00:19;33.77;;;9.30;;
2023;SDS011;1016;48.770;9.154;2023-09-12T14:02:44;32.47;;;9.27;;
2023;SDS011;1016;48.770;9.154;2023-09-12T14:05:11;33.67;;;9.00;;
2023;SDS011;1016;48.770;9.154;2023-09-12T14:07:45;37.63;;;8.73;;
2023;SDS011;1016;48.770;9.154;2023-09-12T14:10:13;32.20;;;7.97;;
2023;SDS011;1016;48.770;9.154;2023-09-12T14:12:46;34.17;;;8.93;;
2023;SDS011;1016;48.770;9.154;2023-09-12T14:15:12;33.90;;;8.07;;
2023;SDS011;1016;48.770;9.154;2023-09-12T14:20:34;32.17;;;7.57;;
2023;SDS011;1016;48.770;9.154;2023-09-12T14:23:00;35.50;;;9.00;;
2023;SDS011;1016;48.770;9.154;2023-09-12T14:25:28;32.13;;;8.10;;
2023;SDS011;1016;48.770;9.154;2023-09-12T14:31:00;33.40;;;8.30;;
2023;SDS011;1016;48.770;9.154;2023-09-12T14:33:29;32.47;;;8.60;;
2023;SDS011;1016;48.770;9.154;2023-09-12T14:35:54;35.80;;;8.00;;
2023;SDS011;1016;48.770;9.154;2023-09-12T14:38:20;33.67;;;8.30;;
2023;SDS011;1016;48.770;9.154;2023-09-12T14:40:45;32.23;;;8.37;;
2023;SDS011;1016;48.770;9.154;2023-09-12T14:43:14;33.80;;;8.70;;
2023;SDS011;1016;48.770;9.154;2023-09-12T14:45:48;34.10;;;8.63;;
2023;SDS011;1016;48.770;9.154;2023-09-12T14:48:14;35.23;;;9.43;;
2023;SDS011;1016;48.770;9.154;2023-09-12T14:50:40;35.13;;;9.30;;
2023;SDS011;1016;48.770;9.154;2023-09-12T14:53:05;33.20;;;9.20;;
2023;SDS011;1016;48.770;9.154;2023-09-12T14:55:33;36.73;;;9.10;;
2023;SDS011;1016;48.770;9.154;2023-09-12T14:57:58;33.87;;;9.40;;
2023;SDS011;1016;48.770;9.154;2023-09-12T15:00:24;31.70;;;8.50;;
2023;SDS011;1016;48.770;9.154;2023-09-12T15:02:50;35.20;;;9.00;;
2023;SDS011;1016;48.770;9.154;2023-09-12T15:05:16;33.03;;;8.93;;
2023;SDS011;1016;48.770;9.154;2023-09-12T15:07:45;33.10;;;8.70;;
2023;SDS011;1016;48.770;9.154;2023-09-12T15:10:10;33.30;;;8.90;;
2023;SDS011;1016;48.770;9.154;2023-09-12T15:12:36;33.20;;;9.53;;
2023;SDS011;1016;48.770;9.154;2023-09-12T15:15:03;32.50;;;9.33;;
2023;SDS011;1016;48.770;9.154;2023-09-12T15:17:29;31.70;;;8.63;;
2023;SDS011;1016;48.770;9.154;2023-09-12T15:20:03;32.47;;;8.90;;
2023;SDS011;1016;48.770;9.154;2023-09-12T15:22:32;33.90;;;8.73;;